Time;durP1;ratioP1;P1;durP2;ratioP2;P2;SDS_P1;SDS_P2;PMS_P1;PMS_P2;Temp;Humidity;BMP_temperature;BMP_pressure;BME280_temperature;BME280_humidity;BME280_pressure;Samples;Min_cycle;Max_cycle;Signal;HPM_P1;HPM_P2
2023/08/27 00:01:17;;;;;;;2.88;2.33;;;;;;;19.36;73.45;99441.16;4953254;28;20123;-85
2023/08/27 00:03:45;;;;;;;8.23;2.50;;;;;;;19.34;73.52;99429.75;4908993;29;20040;-86
2023/08/27 00:06:12;;;;;;;5.03;2.40;;;;;;;19.31;73.75;99416.69;4944297;28;20507;-85
2023/08/27 00:08:39;;;;;;;3.42;2.20;;;;;;;19.34;73.83;99408.22;4908434;29;20126;-85
2023/08/27 00:11:05;;;;;;;8.18;2.45;;;;;;;19.32;73.71;99387.91;4926189;28;20107;-86
2023/08/27 00:13:32;;;;;;;6.15;2.83;;;;;;;19.33;73.75;99390.38;4921666;28;20126;-85
2023/08/27 00:15:59;;;;;;;4.20;2.63;;;;;;;19.34;73.54;99397.44;4909182;28;20086;-85
2023/08/27 00:18:26;;;;;;;5.72;2.90;;;;;;;19.33;73.67;99386.88;4923319;29;20051;-85
2023/08/27 00:20:53;;;;;;;6.75;2.97;;;;;;;19.31;73.77;99381.69;4915658;28;20103;-86
2023/08/27 00:23:20;;;;;;;4.38;3.08;;;;;;;19.30;73.86;99378.16;4919546;29;20052;-85
2023/08/27 00:25:47;;;;;;;4.35;2.80;;;;;;;19.29;74.05;99375.69;4927387;28;20126;-86
2023/08/27 00:28:14;;;;;;;13.45;3.20;;;;;;;19.27;74.01;99375.88;4912539;28;20051;-85
2023/08/27 00:30:41;;;;;;;4.60;2.65;;;;;;;19.26;74.29;99374.22;4904638;28;20106;-85
2023/08/27 00:33:08;;;;;;;5.35;2.88;;;;;;;19.25;74.00;99379.81;4940672;28;20637;-86
2023/08/27 00:35:36;;;;;;;5.57;2.95;;;;;;;19.26;74.15;99387.69;4895612;28;20063;-85
2023/08/27 00:38:05;;;;;;;7.45;2.80;;;;;;;19.24;74.33;99375.47;4911470;28;20151;-85
2023/08/27 00:40:33;;;;;;;5.43;2.50;;;;;;;19.24;74.77;99388.91;4908077;29;20070;-85
2023/08/27 00:42:59;;;;;;;5.82;2.55;;;;;;;19.24;74.49;99388.91;4922853;28;20092;-86
2023/08/27 00:45:27;;;;;;;3.35;2.65;;;;;;;19.25;74.24;99404.03;4912581;28;20665;-86
2023/08/27 00:47:54;;;;;;;6.25;2.80;;;;;;;19.23;74.79;99420.41;4903987;28;20047;-86
2023/08/27 00:50:21;;;;;;;5.35;2.80;;;;;;;19.23;74.54;99420.41;4932358;28;20487;-85
2023/08/27 00:52:49;;;;;;;7.18;3.03;;;;;;;19.21;74.58;99427.84;4935191;28;20060;-86
2023/08/27 00:55:16;;;;;;;4.25;2.58;;;;;;;19.20;74.53;99418.09;4917000;28;20063;-86
2023/08/27 00:57:43;;;;;;;3.20;2.90;;;;;;;19.23;74.39;99412.31;4912141;28;20102;-85
2023/08/27 01:00:10;;;;;;;4.00;2.90;;;;;;;19.20;74.08;99420.78;4916111;28;20059;-85
2023/08/27 01:02:42;;;;;;;4.88;2.88;;;;;;;19.22;74.42;99429.50;4907033;28;20066;-85
2023/08/27 01:05:11;;;;;;;6.10;2.67;;;;;;;19.20;74.72;99447.69;4913591;28;20491;-86
2023/08/27 01:07:50;;;;;;;5.35;2.75;;;;;;;19.17;75.04;99447.28;4942959;28;20051;-86
2023/08/27 01:10:36;;;;;;;6.03;2.95;;;;;;;19.17;74.99;99444.59;4941604;28;20479;-85
2023/08/27 01:13:04;;;;;;;6.60;3.20;;;;;;;19.19;74.46;99432.59;4948644;28;20131;-86
2023/08/27 01:15:32;;;;;;;4.75;2.47;;;;;;;19.19;74.34;99416.44;4876872;28;20114;-85
2023/08/27 01:17:59;;;;;;;3.65;2.42;;;;;;;19.19;74.84;99402.16;4949373;28;20070;-85
2023/08/27 01:20:27;;;;;;;4.55;2.67;;;;;;;19.19;74.80;99404.84;4920414;28;20404;-85
2023/08/27 01:22:54;;;;;;;10.95;2.85;;;;;;;19.19;74.98;99419.13;4947093;28;20054;-85
2023/08/27 01:25:25;;;;;;;5.28;2.95;;;;;;;19.18;75.14;99428.22;4911235;28;20050;-85
2023/08/27 01:28:22;;;;;;;4.95;2.72;;;;;;;19.12;75.25;99420.13;4924701;28;20056;-86
2023/08/27 01:31:04;;;;;;;6.45;2.80;;;;;;;19.09;74.75;99407.91;4924316;28;20067;-86
2023/08/27 01:33:32;;;;;;;7.93;2.60;;;;;;;19.15;74.83;99396.34;4923944;28;20747;-85
2023/08/27 01:35:59;;;;;;;3.95;2.58;;;;;;;19.15;74.97;99395.50;4925610;28;20383;-85
2023/08/27 01:38:26;;;;;;;5.75;2.33;;;;;;;19.16;74.95;99402.53;4895328;28;20067;-86
2023/08/27 01:40:55;;;;;;;7.07;2.67;;;;;;;19.16;75.08;99400.69;4923655;28;20062;-86
2023/08/27 01:43:22;;;;;;;5.18;2.72;;;;;;;19.15;75.26;99401.72;4921035;29;20607;-85
2023/08/27 01:45:48;;;;;;;12.73;2.90;;;;;;;19.15;75.24;99414.34;4937764;28;20048;-85
2023/08/27 01:48:15;;;;;;;3.08;2.60;;;;;;;19.14;75.08;99408.13;4943681;28;20134;-86
2023/08/27 01:50:42;;;;;;;4.07;2.47;;;;;;;19.12;75.32;99394.06;4935262;29;20051;-85
2023/08/27 01:53:09;;;;;;;5.57;3.17;;;;;;;19.14;75.24;99397.38;4921843;28;20087;-85
2023/08/27 01:55:37;;;;;;;5.95;2.95;;;;;;;19.15;75.19;99400.91;4914102;28;20414;-86
2023/08/27 01:58:04;;;;;;;6.32;2.75;;;;;;;19.13;75.61;99405.63;4928295;28;20052;-85
2023/08/27 02:00:31;;;;;;;3.78;2.33;;;;;;;19.14;75.70;99413.53;4953731;28;20052;-85
2023/08/27 02:02:58;;;;;;;4.38;2.53;;;;;;;19.12;75.87;99406.69;4912929;28;20059;-86
2023/08/27 02:05:25;;;;;;;3.67;2.60;;;;;;;19.12;75.85;99420.13;4929303;29;20491;-86
2023/08/27 02:07:53;;;;;;;4.00;2.63;;;;;;;19.11;76.22;99416.63;4899761;28;20089;-85
2023/08/27 02:10:21;;;;;;;3.03;2.53;;;;;;;19.10;76.14;99398.81;4906663;28;20044;-86
2023/08/27 02:12:47;;;;;;;5.68;2.63;;;;;;;19.07;75.67;99394.66;4923909;28;20404;-85
2023/08/27 02:15:15;;;;;;;4.57;2.70;;;;;;;19.09;75.67;99402.53;4940616;28;20115;-85
2023/08/27 02:17:42;;;;;;;4.03;2.50;;;;;;;19.07;75.62;99396.53;4915681;29;20058;-86
2023/08/27 02:20:10;;;;;;;6.97;3.00;;;;;;;19.07;75.89;99389.28;4910314;28;20051;-86
2023/08/27 02:22:37;;;;;;;4.95;2.45;;;;;;;19.07;76.12;99375.81;4926845;28;20139;-85
2023/08/27 02:25:06;;;;;;;5.47;2.28;;;;;;;19.06;75.65;99365.28;4939499;28;20053;-85
2023/08/27 02:27:33;;;;;;;6.88;3.13;;;;;;;19.05;75.94;99359.03;4929505;28;20059;-85
2023/08/27 02:30:00;;;;;;;4.25;2.67;;;;;;;19.05;75.84;99353.66;4907576;28;20396;-86
2023/08/27 02:32:28;;;;;;;2.70;2.50;;;;;;;19.05;75.48;99345.56;4908478;29;20071;-86
2023/08/27 02:34:55;;;;;;;4.45;2.08;;;;;;;19.04;76.13;99346.63;4909658;28;20044;-85
2023/08/27 02:37:21;;;;;;;4.10;2.33;;;;;;;19.05;76.45;99337.50;4897550;29;20043;-85
2023/08/27 02:39:48;;;;;;;8.85;2.80;;;;;;;19.03;76.52;99322.59;4911459;28;20050;-85
2023/08/27 02:42:15;;;;;;;5.15;2.67;;;;;;;19.04;76.81;99332.34;4953596;28;20448;-86
2023/08/27 02:44:42;;;;;;;5.60;2.75;;;;;;;19.03;76.65;99333.34;4943733;28;20143;-85
2023/08/27 02:47:09;;;;;;;4.15;2.80;;;;;;;19.01;76.37;99340.84;4916268;28;20052;-85
2023/08/27 02:49:36;;;;;;;4.57;2.58;;;;;;;18.99;76.69;99351.78;4917153;28;20055;-86
2023/08/27 02:52:03;;;;;;;7.68;2.80;;;;;;;19.02;76.95;99350.56;4915339;28;20063;-85
2023/08/27 02:54:30;;;;;;;7.10;2.78;;;;;;;19.01;77.06;99346.22;4946285;28;20052;-85
2023/08/27 02:56:57;;;;;;;4.90;2.90;;;;;;;18.99;76.90;99350.97;4929867;28;20043;-85
2023/08/27 02:59:24;;;;;;;4.32;3.00;;;;;;;19.00;77.29;99344.53;4913115;28;20047;-86
2023/08/27 03:01:52;;;;;;;4.80;2.60;;;;;;;18.99;77.46;99359.03;4939689;28;20050;-86
2023/08/27 03:04:19;;;;;;;4.50;2.83;;;;;;;19.00;77.28;99366.88;4926457;29;20067;-86
2023/08/27 03:06:46;;;;;;;5.80;2.92;;;;;;;18.98;77.46;99360.03;4950033;28;20205;-85
2023/08/27 03:09:15;;;;;;;3.33;2.67;;;;;;;18.99;77.53;99362.53;4913248;28;20139;-86
2023/08/27 03:11:42;;;;;;;7.63;3.10;;;;;;;18.98;77.40;99357.34;4914888;28;20059;-85
2023/08/27 03:14:08;;;;;;;4.28;2.83;;;;;;;18.98;77.38;99350.13;4930341;28;20055;-85
2023/08/27 03:16:36;;;;;;;4.97;2.80;;;;;;;18.98;77.62;99349.28;4904571;28;20046;-86
2023/08/27 03:19:03;;;;;;;5.55;2.55;;;;;;;18.97;77.56;99342.25;4899044;28;20094;-86
2023/08/27 03:21:30;;;;;;;3.47;3.08;;;;;;;18.98;77.55;99341.22;4891612;28;20130;-85
2023/08/27 03:23:57;;;;;;;3.72;2.45;;;;;;;18.98;77.73;99342.06;4911934;28;20051;-86
2023/08/27 03:26:24;;;;;;;4.60;2.63;;;;;;;18.99;77.79;99334.81;4912668;28;20074;-85
2023/08/27 03:28:50;;;;;;;3.90;3.05;;;;;;;18.97;78.02;99329.63;4901522;28;20095;-86
2023/08/27 03:31:18;;;;;;;3.22;2.60;;;;;;;18.95;78.08;99323.63;4917123;28;20095;-85
2023/08/27 03:33:45;;;;;;;4.97;2.95;;;;;;;18.96;77.61;99322.59;4894195;28;20059;-86
2023/08/27 03:36:12;;;;;;;4.20;3.00;;;;;;;18.93;77.79;99309.56;4907037;28;20125;-85
2023/08/27 03:38:39;;;;;;;7.10;2.90;;;;;;;18.94;78.15;99315.75;4928622;28;20065;-86
2023/08/27 03:41:06;;;;;;;6.85;3.42;;;;;;;18.94;78.18;99321.13;4907942;28;20055;-85
2023/08/27 03:43:33;;;;;;;4.90;2.58;;;;;;;18.95;78.67;99320.91;4942480;28;20066;-84
2023/08/27 03:46:00;;;;;;;5.70;2.95;;;;;;;18.95;78.94;99328.16;4910652;28;20051;-86
2023/08/27 03:48:27;;;;;;;6.18;2.80;;;;;;;18.93;79.13;99314.94;4954790;28;20412;-85
2023/08/27 03:50:54;;;;;;;7.43;2.72;;;;;;;18.91;79.28;99302.72;4926154;28;20475;-85
2023/08/27 03:53:21;;;;;;;3.88;2.40;;;;;;;18.93;79.30;99301.50;4940534;28;20048;-86
2023/08/27 03:55:48;;;;;;;4.05;2.67;;;;;;;18.93;79.17;99292.56;4924858;28;20036;-86
2023/08/27 03:58:15;;;;;;;6.15;3.17;;;;;;;18.91;79.70;99290.09;4911048;29;20063;-86
2023/08/27 04:00:42;;;;;;;5.47;2.70;;;;;;;18.93;79.86;99292.56;4946269;28;20131;-87
2023/08/27 04:03:09;;;;;;;7.05;3.33;;;;;;;18.96;79.82;99308.31;4943021;28;20062;-86
2023/08/27 04:05:37;;;;;;;6.22;3.33;;;;;;;18.93;79.91;99309.56;4890591;28;20040;-85
2023/08/27 04:08:04;;;;;;;5.10;3.38;;;;;;;18.93;80.36;99319.47;4926753;28;20050;-86
2023/08/27 04:10:31;;;;;;;3.83;2.80;;;;;;;18.92;80.42;99325.88;4917271;28;20514;-86
2023/08/27 04:12:57;;;;;;;6.43;3.38;;;;;;;18.94;80.32;99319.28;4900253;28;20495;-86
2023/08/27 04:15:26;;;;;;;4.28;3.03;;;;;;;18.93;80.39;99314.09;4912600;28;20610;-87
2023/08/27 04:17:53;;;;;;;6.93;3.58;;;;;;;18.92;80.46;99320.50;4925761;28;20048;-86
2023/08/27 04:20:20;;;;;;;9.55;3.38;;;;;;;18.93;80.49;99330.22;4912314;29;20043;-86
2023/08/27 04:22:47;;;;;;;7.57;3.42;;;;;;;18.92;81.14;99331.28;4939361;28;20047;-86
2023/08/27 04:25:14;;;;;;;5.28;3.10;;;;;;;18.94;81.52;99342.66;4909381;29;20127;-86
2023/08/27 04:27:41;;;;;;;6.82;3.47;;;;;;;18.94;81.50;99345.34;4928687;28;20555;-86
2023/08/27 04:30:08;;;;;;;7.35;4.40;;;;;;;18.94;81.28;99345.34;4887963;28;20059;-86
2023/08/27 04:32:35;;;;;;;4.45;3.20;;;;;;;18.92;81.71;99323.19;4925716;28;20048;-86
2023/08/27 04:35:02;;;;;;;4.95;3.67;;;;;;;18.91;81.84;99319.69;4926882;28;20059;-87
2023/08/27 04:37:30;;;;;;;6.18;3.10;;;;;;;18.86;81.86;99314.91;4932786;28;20044;-85
2023/08/27 04:39:56;;;;;;;8.13;3.80;;;;;;;18.89;82.15;99316.38;4896810;28;20071;-87
2023/08/27 04:42:24;;;;;;;5.93;3.88;;;;;;;18.87;82.56;99324.63;4955618;28;20165;-87
2023/08/27 04:44:51;;;;;;;6.80;3.50;;;;;;;18.90;82.86;99311.81;4890420;28;20447;-86
2023/08/27 04:47:18;;;;;;;5.72;3.75;;;;;;;18.89;83.15;99305.59;4928525;28;20047;-87
2023/08/27 04:49:44;;;;;;;5.90;3.92;;;;;;;18.86;83.46;99281.81;4905002;28;20070;-86
2023/08/27 04:52:11;;;;;;;5.55;3.40;;;;;;;18.87;83.55;99289.66;4924560;28;20130;-86
2023/08/27 04:54:56;;;;;;;4.70;3.40;;;;;;;18.87;83.81;99278.06;4930867;28;20131;-86
2023/08/27 04:57:24;;;;;;;5.40;3.60;;;;;;;18.87;83.96;99270.81;4940562;28;20047;-87
2023/08/27 04:59:50;;;;;;;6.35;3.50;;;;;;;18.85;83.95;99278.28;4943110;28;20047;-86
2023/08/27 05:02:17;;;;;;;6.80;3.70;;;;;;;18.86;83.76;99288.00;4925498;28;20441;-85
2023/08/27 05:04:44;;;;;;;7.63;3.60;;;;;;;18.83;83.66;99285.72;4926439;28;20043;-85
2023/08/27 05:07:11;;;;;;;7.57;4.10;;;;;;;18.85;83.83;99297.13;4910953;28;20151;-87
2023/08/27 05:09:38;;;;;;;5.80;3.40;;;;;;;18.83;83.43;99295.66;4928100;28;20134;-87
2023/08/27 05:12:05;;;;;;;7.05;3.67;;;;;;;18.82;83.45;99292.13;4942688;28;20392;-86
2023/08/27 05:14:32;;;;;;;6.53;4.13;;;;;;;18.83;83.55;99287.59;4907444;28;20047;-86
2023/08/27 05:17:00;;;;;;;3.72;3.42;;;;;;;18.79;83.75;99278.25;4908502;28;20056;-87
2023/08/27 05:19:27;;;;;;;5.72;3.78;;;;;;;18.81;83.98;99286.97;4911068;28;20123;-86
2023/08/27 05:21:53;;;;;;;6.70;3.70;;;;;;;18.80;83.98;99302.28;4929045;28;20047;-86
2023/08/27 05:24:20;;;;;;;8.32;4.18;;;;;;;18.81;84.27;99321.94;4907556;28;20054;-85
2023/08/27 05:26:47;;;;;;;8.05;3.80;;;;;;;18.79;84.44;99332.88;4910734;28;20075;-85
2023/08/27 05:29:14;;;;;;;6.25;3.60;;;;;;;18.77;84.08;99317.97;4931322;28;20134;-87
2023/08/27 05:31:40;;;;;;;5.30;3.50;;;;;;;18.80;84.43;99321.09;4916289;28;20043;-85
2023/08/27 05:34:07;;;;;;;6.97;4.13;;;;;;;18.79;84.57;99316.75;4944868;28;20129;-86
2023/08/27 05:36:34;;;;;;;6.35;3.55;;;;;;;18.80;84.95;99320.25;4904865;28;20127;-85
2023/08/27 05:39:01;;;;;;;8.82;3.88;;;;;;;18.80;85.05;99310.34;4914885;28;20047;-85
2023/08/27 05:41:28;;;;;;;12.18;4.20;;;;;;;18.80;84.55;99304.09;4947338;28;20051;-86
2023/08/27 05:43:55;;;;;;;7.63;3.90;;;;;;;18.79;84.97;99289.84;4935993;28;20394;-86
2023/08/27 05:46:22;;;;;;;4.57;3.65;;;;;;;18.77;84.91;99289.22;4908682;28;20397;-86
2023/08/27 05:48:49;;;;;;;4.57;3.70;;;;;;;18.78;85.35;99288.19;4941783;28;20042;-86
2023/08/27 05:51:16;;;;;;;14.50;3.85;;;;;;;18.80;85.67;99296.03;4952641;28;20054;-86
2023/08/27 05:53:43;;;;;;;6.47;3.83;;;;;;;18.82;85.66;99307.44;4940047;28;20049;-86
2023/08/27 05:56:10;;;;;;;5.18;4.30;;;;;;;18.81;85.92;99312.00;4923096;28;20590;-86
2023/08/27 05:58:37;;;;;;;6.60;4.03;;;;;;;18.83;85.75;99307.25;4938711;28;20060;-86
2023/08/27 06:01:04;;;;;;;7.78;4.05;;;;;;;18.82;85.47;99305.56;4951672;28;20523;-85
2023/08/27 06:03:31;;;;;;;5.28;3.83;;;;;;;18.81;85.32;99300.41;4927388;29;20047;-86
2023/08/27 06:05:58;;;;;;;6.32;3.85;;;;;;;18.82;85.34;99307.44;4921911;28;20047;-86
2023/08/27 06:08:24;;;;;;;4.22;3.80;;;;;;;18.81;85.84;99314.69;4943409;28;20576;-86
2023/08/27 06:10:52;;;;;;;4.10;3.70;;;;;;;18.82;85.49;99308.25;4942860;28;20043;-85
2023/08/27 06:13:19;;;;;;;5.13;4.13;;;;;;;18.82;85.45;99294.81;4912270;28;20126;-86
2023/08/27 06:15:45;;;;;;;5.78;4.15;;;;;;;18.84;85.56;99286.56;4906764;28;20051;-85
2023/08/27 06:18:12;;;;;;;6.68;3.92;;;;;;;18.87;85.94;99289.66;4927527;28;20043;-85
2023/08/27 06:20:39;;;;;;;6.13;4.47;;;;;;;18.91;86.61;99286.56;4906949;28;20131;-85
2023/08/27 06:23:07;;;;;;;5.43;3.88;;;;;;;18.93;86.50;99290.72;4926565;28;20051;-86
2023/08/27 06:25:35;;;;;;;14.43;4.15;;;;;;;18.95;86.25;99290.50;4952982;28;20134;-86
2023/08/27 06:28:03;;;;;;;4.90;4.20;;;;;;;18.97;86.58;99297.34;4938614;28;20064;-85
2023/08/27 06:30:31;;;;;;;6.30;4.60;;;;;;;18.97;85.99;99297.34;4945511;28;20550;-87
2023/08/27 06:33:01;;;;;;;4.30;3.88;;;;;;;18.96;86.01;99305.63;4913810;28;20507;-86
2023/08/27 06:35:28;;;;;;;7.13;3.78;;;;;;;18.98;86.72;99314.31;4939875;28;20067;-86
2023/08/27 06:37:55;;;;;;;6.18;4.25;;;;;;;18.96;86.63;99309.16;4951444;28;20046;-86
2023/08/27 06:40:21;;;;;;;4.50;3.95;;;;;;;18.96;86.59;99306.44;4899566;28;20106;-85
2023/08/27 06:42:48;;;;;;;6.80;3.72;;;;;;;18.97;86.83;99301.91;4935538;28;20052;-85
2023/08/27 06:45:21;;;;;;;;;;;;;;;18.82;87.99;99292.13;4918383;28;20050;-86
2023/08/27 06:47:49;;;;;;;7.65;4.38;;;;;;;18.94;86.58;99305.00;4913970;29;20011;-86
2023/08/27 06:50:17;;;;;;;6.28;3.90;;;;;;;18.97;86.27;99304.59;4911240;28;20101;-86
2023/08/27 06:52:44;;;;;;;9.68;4.50;;;;;;;19.00;86.00;99312.25;4923322;28;20055;-85
2023/08/27 06:55:11;;;;;;;5.78;4.18;;;;;;;19.01;86.44;99313.94;4925414;28;20051;-86
2023/08/27 06:57:38;;;;;;;11.57;4.50;;;;;;;19.04;86.98;99317.03;4951850;28;20079;-86
2023/08/27 07:00:10;;;;;;;7.38;4.43;;;;;;;19.09;87.45;99324.50;4911630;28;20063;-86
2023/08/27 07:02:37;;;;;;;5.80;4.40;;;;;;;19.10;87.63;99331.53;4924247;28;20062;-85
2023/08/27 07:05:08;;;;;;;6.85;5.10;;;;;;;19.12;87.70;99332.16;4918154;28;20446;-86
2023/08/27 07:07:40;;;;;;;9.75;4.60;;;;;;;19.13;87.54;99332.97;4928976;28;25925;-86
2023/08/27 07:10:08;;;;;;;7.43;3.97;;;;;;;19.15;87.53;99342.50;4947344;28;20048;-86
2023/08/27 07:12:36;;;;;;;6.38;4.78;;;;;;;19.16;87.91;99341.50;4909711;28;20047;-85
2023/08/27 07:15:05;;;;;;;6.70;4.18;;;;;;;19.19;88.36;99338.38;4924966;28;20047;-86
2023/08/27 07:17:38;;;;;;;5.72;4.22;;;;;;;19.21;88.29;99328.25;4917211;28;20044;-85
2023/08/27 07:20:07;;;;;;;7.45;4.07;;;;;;;19.23;88.60;99338.78;4929861;28;20043;-85
2023/08/27 07:22:35;;;;;;;6.88;4.78;;;;;;;19.23;88.85;99323.50;4910968;28;20510;-85
2023/08/27 07:25:05;;;;;;;7.60;4.57;;;;;;;19.24;88.91;99318.94;4931422;28;20118;-86
2023/08/27 07:27:33;;;;;;;6.55;4.38;;;;;;;19.22;89.21;99321.81;4912621;28;20051;-85
2023/08/27 07:30:00;;;;;;;6.78;4.80;;;;;;;19.21;89.17;99322.88;4955085;28;20480;-86
2023/08/27 07:32:27;;;;;;;8.38;5.00;;;;;;;19.20;88.68;99340.03;4919493;29;20039;-86
2023/08/27 07:34:54;;;;;;;6.72;4.43;;;;;;;19.17;88.82;99335.06;4939267;28;20059;-86
2023/08/27 07:37:22;;;;;;;8.10;4.55;;;;;;;19.17;88.14;99321.59;4913745;28;20552;-86
2023/08/27 07:39:49;;;;;;;6.03;4.50;;;;;;;19.16;88.63;99325.34;4938743;28;20059;-85
2023/08/27 07:42:16;;;;;;;6.68;4.72;;;;;;;19.17;88.86;99332.38;4943311;28;20039;-87
2023/08/27 07:44:43;;;;;;;5.93;5.10;;;;;;;19.16;88.79;99319.97;4907468;28;20106;-85
2023/08/27 07:47:10;;;;;;;8.10;5.20;;;;;;;19.19;88.98;99316.84;4943172;28;20059;-85
2023/08/27 07:49:38;;;;;;;7.30;4.97;;;;;;;19.19;89.15;99322.25;4946016;28;20047;-85
2023/08/27 07:52:05;;;;;;;5.88;4.90;;;;;;;19.21;89.19;99314.78;4901418;28;20433;-85
2023/08/27 07:54:32;;;;;;;6.90;5.20;;;;;;;19.19;88.80;99299.88;4897725;28;20051;-85
2023/08/27 07:56:59;;;;;;;7.47;4.85;;;;;;;19.16;88.58;99306.50;4937429;28;20052;-85
2023/08/27 07:59:26;;;;;;;6.40;5.15;;;;;;;19.19;89.01;99319.53;4911276;28;20051;-85
2023/08/27 08:01:53;;;;;;;7.80;5.68;;;;;;;19.20;89.25;99336.50;4919681;28;20099;-85
2023/08/27 08:04:20;;;;;;;7.88;6.03;;;;;;;19.19;89.49;99345.63;4915723;28;20138;-85
2023/08/27 08:06:47;;;;;;;11.68;5.60;;;;;;;19.17;89.43;99353.06;4927362;28;20071;-85
2023/08/27 08:09:14;;;;;;;9.02;5.18;;;;;;;19.16;89.10;99359.47;4912636;28;20415;-86
2023/08/27 08:11:41;;;;;;;7.47;5.43;;;;;;;19.15;89.51;99369.41;4925824;28;20388;-86
2023/08/27 08:14:08;;;;;;;5.85;5.07;;;;;;;19.18;89.36;99385.16;4939637;28;20123;-85
2023/08/27 08:16:34;;;;;;;6.88;5.20;;;;;;;19.19;89.76;99394.09;4906743;29;20050;-85
2023/08/27 08:19:01;;;;;;;8.30;5.55;;;;;;;19.19;89.89;99397.59;4907932;28;20039;-87
2023/08/27 08:21:28;;;;;;;8.52;5.55;;;;;;;19.17;89.56;99391.59;4892440;28;20373;-86
2023/08/27 08:23:55;;;;;;;8.18;5.45;;;;;;;19.16;89.64;99391.78;4907255;28;20046;-85
2023/08/27 08:26:21;;;;;;;8.77;5.90;;;;;;;19.20;89.35;99375.03;4929882;28;20122;-86
2023/08/27 08:28:48;;;;;;;9.55;5.55;;;;;;;19.21;89.97;99386.63;4925814;28;20049;-85
2023/08/27 08:31:15;;;;;;;9.05;5.43;;;;;;;19.19;89.83;99386.00;4917505;28;20047;-85
2023/08/27 08:33:42;;;;;;;7.43;5.20;;;;;;;19.19;89.69;99386.84;4933947;28;20177;-86
2023/08/27 08:36:09;;;;;;;10.15;6.22;;;;;;;19.19;89.89;99388.69;4925472;28;20052;-85
2023/08/27 08:38:36;;;;;;;10.60;5.80;;;;;;;19.22;89.91;99402.56;4924904;29;20051;-86
2023/08/27 08:41:03;;;;;;;7.50;5.32;;;;;;;19.25;89.75;99395.94;4910014;28;20108;-85
2023/08/27 08:43:47;;;;;;;10.95;5.95;;;;;;;19.23;90.52;99388.09;4951750;28;20485;-85
2023/08/27 08:46:15;;;;;;;8.40;5.57;;;;;;;19.31;89.98;99381.69;4894942;28;20042;-86
2023/08/27 08:48:43;;;;;;;11.90;5.97;;;;;;;19.34;89.84;99383.97;4896174;28;20044;-86
2023/08/27 08:51:11;;;;;;;9.65;5.70;;;;;;;19.37;89.66;99390.81;4895694;28;20087;-85
2023/08/27 08:53:43;;;;;;;8.75;5.65;;;;;;;19.37;89.50;99394.34;4911920;28;20051;-85
2023/08/27 08:56:15;;;;;;;8.57;5.78;;;;;;;19.39;89.89;99389.59;4928376;28;20395;-86
2023/08/27 08:58:46;;;;;;;7.83;5.60;;;;;;;19.39;89.81;99384.19;4921676;28;20098;-86
2023/08/27 09:01:14;;;;;;;9.10;5.65;;;;;;;19.43;89.96;99387.28;4928021;28;20079;-85
2023/08/27 09:03:41;;;;;;;11.68;5.93;;;;;;;19.42;89.62;99386.47;4911756;28;20043;-85
2023/08/27 09:06:07;;;;;;;8.15;5.45;;;;;;;19.46;90.17;99386.88;4921741;28;20403;-85
2023/08/27 09:08:35;;;;;;;7.80;5.00;;;;;;;19.51;90.09;99390.66;4927364;28;20459;-86
2023/08/27 09:11:02;;;;;;;5.35;4.65;;;;;;;19.56;90.23;99394.56;4921840;28;20499;-85
2023/08/27 09:13:29;;;;;;;9.15;5.60;;;;;;;19.60;90.10;99380.50;4912411;28;20450;-85
2023/08/27 09:15:56;;;;;;;7.53;5.00;;;;;;;19.60;90.01;99366.22;4928714;28;20615;-86
2023/08/27 09:18:23;;;;;;;9.40;5.85;;;;;;;19.65;90.30;99351.06;4921629;28;20384;-86
2023/08/27 09:20:50;;;;;;;6.53;5.15;;;;;;;19.68;90.09;99360.63;4923123;28;20103;-86
2023/08/27 09:23:17;;;;;;;6.38;5.65;;;;;;;19.70;90.12;99361.28;4923404;28;20082;-86
2023/08/27 09:25:44;;;;;;;7.43;5.53;;;;;;;19.75;90.32;99358.78;4938869;28;20043;-85
2023/08/27 09:28:11;;;;;;;7.63;5.13;;;;;;;19.77;90.31;99353.16;4892089;28;20416;-86
2023/08/27 09:30:38;;;;;;;7.85;5.78;;;;;;;19.81;90.52;99354.44;4910456;28;20420;-85
2023/08/27 09:33:04;;;;;;;7.00;5.07;;;;;;;19.82;90.33;99348.84;4904584;28;20122;-85
2023/08/27 09:35:39;;;;;;;5.60;4.57;;;;;;;19.85;90.75;99356.50;4905876;28;20047;-86
2023/08/27 09:38:07;;;;;;;8.07;5.18;;;;;;;19.94;90.87;99340.94;4930791;28;20391;-86
2023/08/27 09:40:34;;;;;;;7.60;6.63;;;;;;;19.94;90.18;99328.28;4913271;28;20427;-86
2023/08/27 09:43:04;;;;;;;9.32;5.13;;;;;;;19.96;89.85;99322.69;4935259;28;20052;-85
2023/08/27 09:45:34;;;;;;;6.70;4.70;;;;;;;19.97;90.21;99318.97;4921907;28;20134;-86
2023/08/27 09:48:05;;;;;;;9.55;4.53;;;;;;;20.00;90.06;99323.94;4922565;28;20138;-86
2023/08/27 09:50:32;;;;;;;8.77;4.80;;;;;;;20.03;89.94;99325.41;4908455;28;20509;-85
2023/08/27 09:53:12;;;;;;;7.07;4.53;;;;;;;20.04;90.05;99333.25;4907640;28;20049;-86
2023/08/27 09:55:40;;;;;;;7.25;4.75;;;;;;;20.11;89.52;99325.19;4939225;28;20052;-85
2023/08/27 09:58:07;;;;;;;6.30;4.30;;;;;;;20.14;89.24;99319.34;4928135;28;20051;-85
2023/08/27 10:00:34;;;;;;;6.25;4.57;;;;;;;20.14;88.88;99320.19;4917881;28;20048;-85
2023/08/27 10:03:01;;;;;;;6.32;4.22;;;;;;;20.17;89.22;99321.63;4913404;28;20109;-85
2023/08/27 10:05:34;;;;;;;7.15;4.70;;;;;;;20.19;88.77;99321.44;4926756;28;20047;-86
2023/08/27 10:08:05;;;;;;;;;;;;;;;20.08;89.55;99322.91;4943791;28;20476;-85
2023/08/27 10:10:33;;;;;;;6.00;3.80;;;;;;;20.25;89.20;99328.66;4929578;28;19990;-85
2023/08/27 10:13:00;;;;;;;7.20;4.88;;;;;;;20.26;88.55;99336.56;4922366;28;20055;-85
2023/08/27 10:15:27;;;;;;;5.63;3.70;;;;;;;20.28;86.26;99323.69;4912173;28;20138;-86
2023/08/27 10:17:56;;;;;;;6.93;3.25;;;;;;;20.31;86.50;99320.56;4907396;28;20039;-85
2023/08/27 10:20:23;;;;;;;6.45;3.83;;;;;;;20.38;85.85;99315.16;4908332;28;20500;-85
2023/08/27 10:22:50;;;;;;;4.32;2.80;;;;;;;20.44;86.18;99319.69;4932505;28;20051;-84
2023/08/27 10:25:17;;;;;;;5.07;3.15;;;;;;;20.50;86.05;99315.31;4946871;28;20105;-85
2023/08/27 10:27:46;;;;;;;5.40;3.65;;;;;;;20.54;85.56;99303.94;4933151;28;20051;-85
2023/08/27 10:30:14;;;;;;;4.68;3.00;;;;;;;20.57;85.12;99305.38;4900507;28;20071;-85
2023/08/27 10:32:41;;;;;;;6.50;3.53;;;;;;;20.58;85.11;99299.78;4930433;28;20126;-85
2023/08/27 10:35:09;;;;;;;6.07;3.17;;;;;;;20.59;84.62;99292.50;4911271;28;20039;-84
2023/08/27 10:37:38;;;;;;;10.00;3.45;;;;;;;20.60;83.38;99294.97;4911666;29;20046;-85
2023/08/27 10:40:08;;;;;;;4.28;2.90;;;;;;;20.62;83.24;99291.25;4918755;28;20465;-85
2023/08/27 10:42:36;;;;;;;7.03;3.90;;;;;;;20.62;81.29;99292.06;4924008;28;20502;-85
2023/08/27 10:45:18;;;;;;;5.85;2.85;;;;;;;20.60;81.83;99286.88;4914606;28;20138;-85
2023/08/27 10:48:23;;;;;;;3.97;3.03;;;;;;;20.60;81.74;99288.75;4912299;28;20043;-85
2023/08/27 10:50:51;;;;;;;5.05;3.03;;;;;;;20.67;82.87;99278.75;4934511;28;20050;-85
2023/08/27 10:53:19;;;;;;;5.45;3.08;;;;;;;20.74;82.14;99289.53;4928405;29;20058;-85
2023/08/27 10:55:50;;;;;;;4.60;2.65;;;;;;;20.74;81.73;99294.94;4938883;28;20047;-85
2023/08/27 10:58:22;;;;;;;5.05;2.97;;;;;;;20.74;80.30;99279.56;4934672;28;20475;-84
2023/08/27 11:01:04;;;;;;;4.85;2.85;;;;;;;20.72;80.60;99275.41;4925310;29;20040;-85
2023/08/27 11:03:51;;;;;;;7.55;3.20;;;;;;;20.71;80.65;99271.91;4919995;28;20063;-85
2023/08/27 11:06:18;;;;;;;3.65;2.67;;;;;;;20.80;80.66;99281.38;4899273;28;20046;-86
2023/08/27 11:08:49;;;;;;;5.65;2.80;;;;;;;20.80;79.56;99281.38;4940936;28;20134;-86
2023/08/27 11:11:16;;;;;;;5.03;3.03;;;;;;;20.77;79.00;99276.44;4931588;28;20043;-85
2023/08/27 11:13:47;;;;;;;4.63;3.38;;;;;;;20.77;79.10;99268.34;4928609;28;20391;-86
2023/08/27 11:16:15;;;;;;;3.97;2.72;;;;;;;20.79;79.47;99290.53;4911991;28;20062;-86
2023/08/27 11:18:51;;;;;;;6.50;2.97;;;;;;;20.79;79.18;99297.81;4928354;28;20043;-86
2023/08/27 11:21:25;;;;;;;6.72;3.05;;;;;;;20.88;78.90;99292.97;4927036;28;20043;-85
2023/08/27 11:24:16;;;;;;;5.97;3.10;;;;;;;20.78;77.30;99283.47;4897357;28;20102;-86
2023/08/27 11:26:45;;;;;;;10.80;3.30;;;;;;;20.88;79.04;99277.59;4902569;28;20043;-85
2023/08/27 11:29:12;;;;;;;5.00;2.80;;;;;;;20.89;78.75;99281.97;4934971;28;20082;-85
2023/08/27 11:31:40;;;;;;;4.32;3.08;;;;;;;20.94;78.67;99275.91;4902672;28;20131;-86
2023/08/27 11:34:10;;;;;;;7.82;2.72;;;;;;;20.97;78.25;99272.78;4914296;28;20525;-85
2023/08/27 11:36:38;;;;;;;5.03;2.83;;;;;;;20.97;77.84;99260.13;4922102;29;20126;-85
2023/08/27 11:39:08;;;;;;;6.45;2.75;;;;;;;20.98;77.51;99269.88;4927058;28;20052;-85